Mangohick, Virginia
Current Conditions -  °F | °C
As of 2:54 PM on Friday 28 Nov 2014 (Local Time) from KOFP Reporting Station
Clear Clear  
Wind Chill: 35°   Ceiling: Unl
Heat Index: 41°   Visibility: 10mi
Dew Point: 18°   Wind: 10mph
Humidity: 40%   Direction: 300°WNW
Pressure: 30.28"   Gusts: NA
Location:  37.7857°N, 77.3107°W
Report Text: KOFP 281954Z AUTO 30009KT 10SM CLR 05/M08 A3028 RMK AO2 SLP256 T00501078
Loading
Personal Weather Stations






























Interactive Weather Map New forecast layout! Learn more

10-Day Weather Forecast

Advertisements
Track Severe Weather on mobile